sensor_id;sensor_type;location;lat;lon;timestamp;temperature;humidity
15239;DHT22;7722;53.274;9.500;2023-11-21T00:00:36;8.70;99.90
15239;DHT22;7722;53.274;9.500;2023-11-21T00:03:03;8.80;99.90
15239;DHT22;7722;53.274;9.500;2023-11-21T00:05:30;9.00;99.90
15239;DHT22;7722;53.274;9.500;2023-11-21T00:07:57;8.90;99.90
15239;DHT22;7722;53.274;9.500;2023-11-21T00:10:24;9.00;99.90
15239;DHT22;7722;53.274;9.500;2023-11-21T00:12:52;8.90;99.90
15239;DHT22;7722;53.274;9.500;2023-11-21T00:15:20;8.90;99.90
15239;DHT22;7722;53.274;9.500;2023-11-21T00:17:49;9.00;99.90
15239;DHT22;7722;53.274;9.500;2023-11-21T00:20:17;9.00;99.90
15239;DHT22;7722;53.274;9.500;2023-11-21T00:22:44;9.00;99.90
15239;DHT22;7722;53.274;9.500;2023-11-21T00:25:12;8.90;99.90
15239;DHT22;7722;53.274;9.500;2023-11-21T00:27:41;8.90;99.90
15239;DHT22;7722;53.274;9.500;2023-11-21T00:30:09;8.90;99.90
15239;DHT22;7722;53.274;9.500;2023-11-21T00:32:37;9.10;99.90
15239;DHT22;7722;53.274;9.500;2023-11-21T00:35:07;9.10;99.90
15239;DHT22;7722;53.274;9.500;2023-11-21T00:37:34;9.10;99.90
15239;DHT22;7722;53.274;9.500;2023-11-21T00:40:01;9.00;99.90
15239;DHT22;7722;53.274;9.500;2023-11-21T00:42:30;8.90;99.90
15239;DHT22;7722;53.274;9.500;2023-11-21T00:44:58;8.90;99.90
15239;DHT22;7722;53.274;9.500;2023-11-21T00:47:25;9.10;99.90
15239;DHT22;7722;53.274;9.500;2023-11-21T00:49:52;9.00;99.90
15239;DHT22;7722;53.274;9.500;2023-11-21T00:52:21;9.00;99.90
15239;DHT22;7722;53.274;9.500;2023-11-21T00:54:48;9.00;99.90
15239;DHT22;7722;53.274;9.500;2023-11-21T00:57:15;9.00;99.90
15239;DHT22;7722;53.274;9.500;2023-11-21T00:59:42;9.00;99.90
15239;DHT22;7722;53.274;9.500;2023-11-21T01:02:09;8.80;99.90
15239;DHT22;7722;53.274;9.500;2023-11-21T01:04:36;8.90;99.90
15239;DHT22;7722;53.274;9.500;2023-11-21T01:07:04;9.00;99.90
15239;DHT22;7722;53.274;9.500;2023-11-21T01:09:33;8.90;99.90
15239;DHT22;7722;53.274;9.500;2023-11-21T01:12:00;9.00;99.90
15239;DHT22;7722;53.274;9.500;2023-11-21T01:14:27;9.00;99.90
15239;DHT22;7722;53.274;9.500;2023-11-21T01:16:55;8.90;99.90
15239;DHT22;7722;53.274;9.500;2023-11-21T01:19:22;8.90;99.90
15239;DHT22;7722;53.274;9.500;2023-11-21T01:21:49;8.90;99.90
15239;DHT22;7722;53.274;9.500;2023-11-21T01:24:17;9.10;99.90
15239;DHT22;7722;53.274;9.500;2023-11-21T01:26:46;8.90;99.90
15239;DHT22;7722;53.274;9.500;2023-11-21T01:29:13;9.10;99.90
15239;DHT22;7722;53.274;9.500;2023-11-21T01:31:40;9.00;99.90
15239;DHT22;7722;53.274;9.500;2023-11-21T01:34:07;9.00;99.90
15239;DHT22;7722;53.274;9.500;2023-11-21T01:36:34;9.10;99.90
15239;DHT22;7722;53.274;9.500;2023-11-21T01:39:01;8.90;99.90
15239;DHT22;7722;53.274;9.500;2023-11-21T01:41:33;9.00;99.90
15239;DHT22;7722;53.274;9.500;2023-11-21T01:44:02;8.80;99.90
15239;DHT22;7722;53.274;9.500;2023-11-21T01:46:33;8.80;99.90
15239;DHT22;7722;53.274;9.500;2023-11-21T01:49:00;8.80;99.90
15239;DHT22;7722;53.274;9.500;2023-11-21T01:51:27;8.80;99.90
15239;DHT22;7722;53.274;9.500;2023-11-21T01:53:54;8.80;99.90
15239;DHT22;7722;53.274;9.500;2023-11-21T01:56:22;8.90;99.90
15239;DHT22;7722;53.274;9.500;2023-11-21T01:58:49;8.70;99.90
15239;DHT22;7722;53.274;9.500;2023-11-21T02:01:18;8.80;99.90
15239;DHT22;7722;53.274;9.500;2023-11-21T02:03:45;8.80;99.90
15239;DHT22;7722;53.274;9.500;2023-11-21T02:06:12;8.60;99.90
15239;DHT22;7722;53.274;9.500;2023-11-21T02:08:39;8.80;99.90
15239;DHT22;7722;53.274;9.500;2023-11-21T02:11:09;8.60;99.90
15239;DHT22;7722;53.274;9.500;2023-11-21T02:13:38;8.70;99.90
15239;DHT22;7722;53.274;9.500;2023-11-21T02:16:09;8.60;99.90
15239;DHT22;7722;53.274;9.500;2023-11-21T02:18:38;8.50;99.90
15239;DHT22;7722;53.274;9.500;2023-11-21T02:21:06;8.60;99.90
15239;DHT22;7722;53.274;9.500;2023-11-21T02:23:37;8.60;99.90
15239;DHT22;7722;53.274;9.500;2023-11-21T02:26:07;8.60;99.90
15239;DHT22;7722;53.274;9.500;2023-11-21T02:28:35;8.40;99.90
15239;DHT22;7722;53.274;9.500;2023-11-21T02:31:04;8.50;99.90
15239;DHT22;7722;53.274;9.500;2023-11-21T02:33:33;8.50;99.90
15239;DHT22;7722;53.274;9.500;2023-11-21T02:36:00;8.40;99.90
15239;DHT22;7722;53.274;9.500;2023-11-21T02:38:27;8.40;99.90
15239;DHT22;7722;53.274;9.500;2023-11-21T02:40:57;8.50;99.90
15239;DHT22;7722;53.274;9.500;2023-11-21T02:43:25;8.40;99.90
15239;DHT22;7722;53.274;9.500;2023-11-21T02:45:51;8.20;99.90
15239;DHT22;7722;53.274;9.500;2023-11-21T02:48:18;8.20;99.90
15239;DHT22;7722;53.274;9.500;2023-11-21T02:50:46;8.10;99.90
15239;DHT22;7722;53.274;9.500;2023-11-21T02:53:13;8.20;99.90
15239;DHT22;7722;53.274;9.500;2023-11-21T02:55:40;8.00;99.90
15239;DHT22;7722;53.274;9.500;2023-11-21T02:58:09;7.80;99.90
15239;DHT22;7722;53.274;9.500;2023-11-21T03:00:36;7.70;99.90
15239;DHT22;7722;53.274;9.500;2023-11-21T03:03:03;7.60;99.90
15239;DHT22;7722;53.274;9.500;2023-11-21T03:05:30;7.70;99.90
15239;DHT22;7722;53.274;9.500;2023-11-21T03:07:57;7.60;99.90
15239;DHT22;7722;53.274;9.500;2023-11-21T03:10:24;7.60;99.90
15239;DHT22;7722;53.274;9.500;2023-11-21T03:12:51;7.40;99.90
15239;DHT22;7722;53.274;9.500;2023-11-21T03:15:19;7.50;99.90
15239;DHT22;7722;53.274;9.500;2023-11-21T03:17:46;7.40;99.90
15239;DHT22;7722;53.274;9.500;2023-11-21T03:20:14;7.30;99.90
15239;DHT22;7722;53.274;9.500;2023-11-21T03:22:42;7.50;99.90
15239;DHT22;7722;53.274;9.500;2023-11-21T03:25:09;7.40;99.90
15239;DHT22;7722;53.274;9.500;2023-11-21T03:27:37;7.40;99.90
15239;DHT22;7722;53.274;9.500;2023-11-21T03:30:07;7.40;99.90
15239;DHT22;7722;53.274;9.500;2023-11-21T03:32:36;7.30;99.90
15239;DHT22;7722;53.274;9.500;2023-11-21T03:35:04;7.40;99.90
15239;DHT22;7722;53.274;9.500;2023-11-21T03:37:31;7.20;99.90
15239;DHT22;7722;53.274;9.500;2023-11-21T03:39:58;7.30;99.90
15239;DHT22;7722;53.274;9.500;2023-11-21T03:42:25;7.20;99.90
15239;DHT22;7722;53.274;9.500;2023-11-21T03:44:52;7.20;99.90
15239;DHT22;7722;53.274;9.500;2023-11-21T03:47:19;7.10;99.90
15239;DHT22;7722;53.274;9.500;2023-11-21T03:49:48;7.20;99.90
15239;DHT22;7722;53.274;9.500;2023-11-21T03:52:15;7.10;99.90
15239;DHT22;7722;53.274;9.500;2023-11-21T03:54:42;7.00;99.90
15239;DHT22;7722;53.274;9.500;2023-11-21T03:57:09;6.90;99.90
15239;DHT22;7722;53.274;9.500;2023-11-21T03:59:40;7.00;99.90
15239;DHT22;7722;53.274;9.500;2023-11-21T04:02:07;6.90;99.90
15239;DHT22;7722;53.274;9.500;2023-11-21T04:04:35;6.80;99.90
15239;DHT22;7722;53.274;9.500;2023-11-21T04:07:04;6.80;99.90
15239;DHT22;7722;53.274;9.500;2023-11-21T04:09:31;6.80;99.90
15239;DHT22;7722;53.274;9.500;2023-11-21T04:11:58;6.80;99.90
15239;DHT22;7722;53.274;9.500;2023-11-21T04:14:25;6.80;99.90
15239;DHT22;7722;53.274;9.500;2023-11-21T04:16:52;6.60;99.90
15239;DHT22;7722;53.274;9.500;2023-11-21T04:19:19;6.60;99.90
15239;DHT22;7722;53.274;9.500;2023-11-21T04:21:46;6.60;99.90
15239;DHT22;7722;53.274;9.500;2023-11-21T04:24:14;6.50;99.90
15239;DHT22;7722;53.274;9.500;2023-11-21T04:26:42;6.50;99.90
15239;DHT22;7722;53.274;9.500;2023-11-21T04:29:09;6.40;99.90
15239;DHT22;7722;53.274;9.500;2023-11-21T04:31:37;6.30;99.90
15239;DHT22;7722;53.274;9.500;2023-11-21T04:34:04;6.40;99.90
15239;DHT22;7722;53.274;9.500;2023-11-21T04:36:31;6.30;99.90
15239;DHT22;7722;53.274;9.500;2023-11-21T04:38:58;6.20;99.90
15239;DHT22;7722;53.274;9.500;2023-11-21T04:41:26;6.20;99.90
15239;DHT22;7722;53.274;9.500;2023-11-21T04:43:53;6.20;99.90
15239;DHT22;7722;53.274;9.500;2023-11-21T04:46:21;6.30;99.90
15239;DHT22;7722;53.274;9.500;2023-11-21T04:48:48;6.30;99.90
15239;DHT22;7722;53.274;9.500;2023-11-21T04:51:15;6.20;99.90
15239;DHT22;7722;53.274;9.500;2023-11-21T04:53:42;6.20;99.90
15239;DHT22;7722;53.274;9.500;2023-11-21T04:56:09;6.20;99.90
15239;DHT22;7722;53.274;9.500;2023-11-21T04:58:38;6.20;99.90
15239;DHT22;7722;53.274;9.500;2023-11-21T05:01:06;6.20;99.90
15239;DHT22;7722;53.274;9.500;2023-11-21T05:03:33;6.10;99.90
15239;DHT22;7722;53.274;9.500;2023-11-21T05:06:00;6.20;99.90
15239;DHT22;7722;53.274;9.500;2023-11-21T05:08:27;6.30;99.90
15239;DHT22;7722;53.274;9.500;2023-11-21T05:10:54;6.20;99.90
15239;DHT22;7722;53.274;9.500;2023-11-21T05:13:22;6.20;99.90
15239;DHT22;7722;53.274;9.500;2023-11-21T05:15:54;6.10;99.90
15239;DHT22;7722;53.274;9.500;2023-11-21T05:18:22;6.10;99.90
15239;DHT22;7722;53.274;9.500;2023-11-21T05:20:49;6.00;99.90
15239;DHT22;7722;53.274;9.500;2023-11-21T05:23:16;6.10;99.90
15239;DHT22;7722;53.274;9.500;2023-11-21T05:25:43;6.10;99.90
15239;DHT22;7722;53.274;9.500;2023-11-21T05:28:11;6.20;99.90
15239;DHT22;7722;53.274;9.500;2023-11-21T05:30:39;6.20;99.90
15239;DHT22;7722;53.274;9.500;2023-11-21T05:33:07;6.20;99.90
15239;DHT22;7722;53.274;9.500;2023-11-21T05:35:34;6.10;99.90
15239;DHT22;7722;53.274;9.500;2023-11-21T05:38:01;6.10;99.90
15239;DHT22;7722;53.274;9.500;2023-11-21T05:40:28;6.10;99.90
15239;DHT22;7722;53.274;9.500;2023-11-21T05:42:56;6.00;99.90
15239;DHT22;7722;53.274;9.500;2023-11-21T05:45:23;6.00;99.90
15239;DHT22;7722;53.274;9.500;2023-11-21T05:47:50;6.00;99.90
15239;DHT22;7722;53.274;9.500;2023-11-21T05:50:18;6.00;99.90
15239;DHT22;7722;53.274;9.500;2023-11-21T05:52:46;6.00;99.90
15239;DHT22;7722;53.274;9.500;2023-11-21T05:55:14;6.00;99.90
15239;DHT22;7722;53.274;9.500;2023-11-21T05:57:42;5.90;99.90
15239;DHT22;7722;53.274;9.500;2023-11-21T06:00:11;5.90;99.90
15239;DHT22;7722;53.274;9.500;2023-11-21T06:02:44;5.90;99.90
15239;DHT22;7722;53.274;9.500;2023-11-21T06:05:11;5.90;99.90
15239;DHT22;7722;53.274;9.500;2023-11-21T06:07:40;5.90;99.90
15239;DHT22;7722;53.274;9.500;2023-11-21T06:10:08;5.90;99.90
15239;DHT22;7722;53.274;9.500;2023-11-21T06:12:36;5.90;99.90
15239;DHT22;7722;53.274;9.500;2023-11-21T06:15:06;5.90;99.90
15239;DHT22;7722;53.274;9.500;2023-11-21T06:17:35;6.00;99.90
15239;DHT22;7722;53.274;9.500;2023-11-21T06:20:03;6.00;99.90
15239;DHT22;7722;53.274;9.500;2023-11-21T06:22:34;5.90;99.90
15239;DHT22;7722;53.274;9.500;2023-11-21T06:25:03;5.90;99.90
15239;DHT22;7722;53.274;9.500;2023-11-21T06:27:31;5.90;99.90
15239;DHT22;7722;53.274;9.500;2023-11-21T06:29:58;5.90;99.90
15239;DHT22;7722;53.274;9.500;2023-11-21T06:32:25;6.00;99.90
15239;DHT22;7722;53.274;9.500;2023-11-21T06:34:55;6.10;99.90
15239;DHT22;7722;53.274;9.500;2023-11-21T06:37:25;6.00;99.90
15239;DHT22;7722;53.274;9.500;2023-11-21T06:39:52;6.00;99.90
15239;DHT22;7722;53.274;9.500;2023-11-21T06:42:20;6.00;99.90
15239;DHT22;7722;53.274;9.500;2023-11-21T06:44:48;6.00;99.90
15239;DHT22;7722;53.274;9.500;2023-11-21T06:47:17;6.10;99.90
15239;DHT22;7722;53.274;9.500;2023-11-21T06:49:46;6.00;99.90
15239;DHT22;7722;53.274;9.500;2023-11-21T06:52:15;6.00;99.90
15239;DHT22;7722;53.274;9.500;2023-11-21T06:54:42;6.00;99.90
15239;DHT22;7722;53.274;9.500;2023-11-21T06:57:09;6.00;99.90
15239;DHT22;7722;53.274;9.500;2023-11-21T06:59:37;6.00;99.90
15239;DHT22;7722;53.274;9.500;2023-11-21T07:02:05;6.10;99.90
15239;DHT22;7722;53.274;9.500;2023-11-21T07:04:32;6.00;99.90
15239;DHT22;7722;53.274;9.500;2023-11-21T07:06:59;6.00;99.90
15239;DHT22;7722;53.274;9.500;2023-11-21T07:09:27;5.90;99.90
15239;DHT22;7722;53.274;9.500;2023-11-21T07:11:55;5.90;99.90
15239;DHT22;7722;53.274;9.500;2023-11-21T07:14:22;5.90;99.90
15239;DHT22;7722;53.274;9.500;2023-11-21T07:16:50;5.90;99.90
15239;DHT22;7722;53.274;9.500;2023-11-21T07:19:18;5.90;99.90
15239;DHT22;7722;53.274;9.500;2023-11-21T07:21:45;5.80;99.90
15239;DHT22;7722;53.274;9.500;2023-11-21T07:24:12;5.80;99.90
15239;DHT22;7722;53.274;9.500;2023-11-21T07:26:39;5.90;99.90
15239;DHT22;7722;53.274;9.500;2023-11-21T07:29:06;5.80;99.90
15239;DHT22;7722;53.274;9.500;2023-11-21T07:31:33;5.80;99.90
15239;DHT22;7722;53.274;9.500;2023-11-21T07:34:02;5.80;99.90
15239;DHT22;7722;53.274;9.500;2023-11-21T07:36:29;5.80;99.90
15239;DHT22;7722;53.274;9.500;2023-11-21T07:38:56;5.90;99.90
15239;DHT22;7722;53.274;9.500;2023-11-21T07:41:23;5.90;99.90
15239;DHT22;7722;53.274;9.500;2023-11-21T07:43:50;5.90;99.90
15239;DHT22;7722;53.274;9.500;2023-11-21T07:46:17;5.90;99.90
15239;DHT22;7722;53.274;9.500;2023-11-21T07:48:46;5.90;99.90
15239;DHT22;7722;53.274;9.500;2023-11-21T07:51:14;5.90;99.90
15239;DHT22;7722;53.274;9.500;2023-11-21T07:53:41;5.90;99.90
15239;DHT22;7722;53.274;9.500;2023-11-21T07:56:09;5.90;99.90
15239;DHT22;7722;53.274;9.500;2023-11-21T07:58:36;6.00;99.90
15239;DHT22;7722;53.274;9.500;2023-11-21T08:01:04;6.00;99.90
15239;DHT22;7722;53.274;9.500;2023-11-21T08:03:31;5.90;99.90
15239;DHT22;7722;53.274;9.500;2023-11-21T08:05:59;6.00;99.90
15239;DHT22;7722;53.274;9.500;2023-11-21T08:08:27;6.10;99.90
15239;DHT22;7722;53.274;9.500;2023-11-21T08:10:54;6.00;99.90
15239;DHT22;7722;53.274;9.500;2023-11-21T08:13:23;6.10;99.90
15239;DHT22;7722;53.274;9.500;2023-11-21T08:15:50;6.00;99.90
15239;DHT22;7722;53.274;9.500;2023-11-21T08:18:17;6.20;99.90
15239;DHT22;7722;53.274;9.500;2023-11-21T08:20:44;6.20;99.90
15239;DHT22;7722;53.274;9.500;2023-11-21T08:23:14;6.20;99.90
15239;DHT22;7722;53.274;9.500;2023-11-21T08:25:44;6.20;99.90
15239;DHT22;7722;53.274;9.500;2023-11-21T08:28:12;6.30;99.90
15239;DHT22;7722;53.274;9.500;2023-11-21T08:30:40;6.40;99.90
15239;DHT22;7722;53.274;9.500;2023-11-21T08:33:08;6.40;99.90
15239;DHT22;7722;53.274;9.500;2023-11-21T08:35:37;6.40;99.90
15239;DHT22;7722;53.274;9.500;2023-11-21T08:38:05;6.40;99.90
15239;DHT22;7722;53.274;9.500;2023-11-21T08:40:33;6.60;99.90
15239;DHT22;7722;53.274;9.500;2023-11-21T08:43:03;6.50;99.90
15239;DHT22;7722;53.274;9.500;2023-11-21T08:45:30;6.60;99.90
15239;DHT22;7722;53.274;9.500;2023-11-21T08:47:59;6.60;99.90
15239;DHT22;7722;53.274;9.500;2023-11-21T08:50:26;6.60;99.90
15239;DHT22;7722;53.274;9.500;2023-11-21T08:52:53;6.60;99.90
15239;DHT22;7722;53.274;9.500;2023-11-21T08:55:21;6.60;99.90
15239;DHT22;7722;53.274;9.500;2023-11-21T08:57:48;6.60;99.90
15239;DHT22;7722;53.274;9.500;2023-11-21T09:00:18;6.50;99.90
15239;DHT22;7722;53.274;9.500;2023-11-21T09:02:45;6.60;99.90
15239;DHT22;7722;53.274;9.500;2023-11-21T09:05:14;6.60;99.90
15239;DHT22;7722;53.274;9.500;2023-11-21T09:07:42;6.60;99.90
15239;DHT22;7722;53.274;9.500;2023-11-21T09:10:11;6.60;99.90
15239;DHT22;7722;53.274;9.500;2023-11-21T09:12:38;6.70;99.90
15239;DHT22;7722;53.274;9.500;2023-11-21T09:15:07;6.80;99.90
15239;DHT22;7722;53.274;9.500;2023-11-21T09:17:36;6.80;99.90
15239;DHT22;7722;53.274;9.500;2023-11-21T09:20:05;6.90;99.90
15239;DHT22;7722;53.274;9.500;2023-11-21T09:22:35;6.90;99.90
15239;DHT22;7722;53.274;9.500;2023-11-21T09:25:02;7.00;99.90
15239;DHT22;7722;53.274;9.500;2023-11-21T09:27:31;7.10;99.90
15239;DHT22;7722;53.274;9.500;2023-11-21T09:29:59;7.00;99.90
15239;DHT22;7722;53.274;9.500;2023-11-21T09:32:26;6.90;99.90
15239;DHT22;7722;53.274;9.500;2023-11-21T09:34:54;6.90;99.90
15239;DHT22;7722;53.274;9.500;2023-11-21T09:37:24;7.00;99.90
15239;DHT22;7722;53.274;9.500;2023-11-21T09:39:52;6.90;99.90
15239;DHT22;7722;53.274;9.500;2023-11-21T09:42:23;6.90;99.90
15239;DHT22;7722;53.274;9.500;2023-11-21T09:44:57;6.90;99.90
15239;DHT22;7722;53.274;9.500;2023-11-21T09:47:27;7.00;99.90
15239;DHT22;7722;53.274;9.500;2023-11-21T09:49:57;7.10;99.90
15239;DHT22;7722;53.274;9.500;2023-11-21T09:52:28;7.20;99.90
15239;DHT22;7722;53.274;9.500;2023-11-21T09:54:56;7.20;99.90
15239;DHT22;7722;53.274;9.500;2023-11-21T09:57:37;7.20;99.90
15239;DHT22;7722;53.274;9.500;2023-11-21T10:00:05;7.20;99.90
15239;DHT22;7722;53.274;9.500;2023-11-21T10:02:38;7.30;99.90
15239;DHT22;7722;53.274;9.500;2023-11-21T10:05:08;7.30;99.90
15239;DHT22;7722;53.274;9.500;2023-11-21T10:07:37;7.30;99.90
15239;DHT22;7722;53.274;9.500;2023-11-21T10:10:08;7.30;99.90
15239;DHT22;7722;53.274;9.500;2023-11-21T10:12:35;7.30;99.90
15239;DHT22;7722;53.274;9.500;2023-11-21T10:15:08;7.30;99.90
15239;DHT22;7722;53.274;9.500;2023-11-21T10:17:38;7.40;99.90
15239;DHT22;7722;53.274;9.500;2023-11-21T10:20:11;7.40;99.90
15239;DHT22;7722;53.274;9.500;2023-11-21T10:22:40;7.30;99.90
15239;DHT22;7722;53.274;9.500;2023-11-21T10:25:08;7.30;99.90
15239;DHT22;7722;53.274;9.500;2023-11-21T10:27:36;7.40;99.90
15239;DHT22;7722;53.274;9.500;2023-11-21T10:30:06;7.40;99.90
15239;DHT22;7722;53.274;9.500;2023-11-21T10:32:34;7.50;99.90
15239;DHT22;7722;53.274;9.500;2023-11-21T10:35:01;7.60;99.90
15239;DHT22;7722;53.274;9.500;2023-11-21T10:37:33;7.50;99.90
15239;DHT22;7722;53.274;9.500;2023-11-21T10:40:00;7.40;99.90
15239;DHT22;7722;53.274;9.500;2023-11-21T10:42:28;7.60;99.90
15239;DHT22;7722;53.274;9.500;2023-11-21T10:44:55;7.60;99.90
15239;DHT22;7722;53.274;9.500;2023-11-21T10:47:22;7.60;99.90
15239;DHT22;7722;53.274;9.500;2023-11-21T10:49:49;7.60;99.90
15239;DHT22;7722;53.274;9.500;2023-11-21T10:52:19;7.60;99.90
15239;DHT22;7722;53.274;9.500;2023-11-21T10:54:47;7.70;99.90
15239;DHT22;7722;53.274;9.500;2023-11-21T10:57:18;7.70;99.90
15239;DHT22;7722;53.274;9.500;2023-11-21T10:59:47;7.60;99.90
15239;DHT22;7722;53.274;9.500;2023-11-21T11:02:21;7.60;99.90
15239;DHT22;7722;53.274;9.500;2023-11-21T11:04:52;7.70;99.90
15239;DHT22;7722;53.274;9.500;2023-11-21T11:07:22;7.70;99.90
15239;DHT22;7722;53.274;9.500;2023-11-21T11:09:54;7.70;99.90
15239;DHT22;7722;53.274;9.500;2023-11-21T11:12:21;7.70;99.90
15239;DHT22;7722;53.274;9.500;2023-11-21T11:14:49;7.90;99.90
15239;DHT22;7722;53.274;9.500;2023-11-21T11:17:16;7.80;99.90
15239;DHT22;7722;53.274;9.500;2023-11-21T11:19:46;7.90;99.90
15239;DHT22;7722;53.274;9.500;2023-11-21T11:22:24;7.90;99.90
15239;DHT22;7722;53.274;9.500;2023-11-21T11:25:08;7.90;99.90
15239;DHT22;7722;53.274;9.500;2023-11-21T11:27:47;7.90;99.90
15239;DHT22;7722;53.274;9.500;2023-11-21T11:30:25;8.00;99.90
15239;DHT22;7722;53.274;9.500;2023-11-21T11:33:01;8.00;99.90
15239;DHT22;7722;53.274;9.500;2023-11-21T11:35:38;8.00;99.90
15239;DHT22;7722;53.274;9.500;2023-11-21T11:38:07;8.00;99.90
15239;DHT22;7722;53.274;9.500;2023-11-21T11:40:41;8.00;99.90
15239;DHT22;7722;53.274;9.500;2023-11-21T11:43:09;8.10;99.90
15239;DHT22;7722;53.274;9.500;2023-11-21T11:45:38;8.00;99.90
15239;DHT22;7722;53.274;9.500;2023-11-21T11:48:07;8.00;99.90
15239;DHT22;7722;53.274;9.500;2023-11-21T11:50:34;8.00;99.90
15239;DHT22;7722;53.274;9.500;2023-11-21T11:53:15;7.90;99.90
15239;DHT22;7722;53.274;9.500;2023-11-21T11:55:45;8.00;99.90
15239;DHT22;7722;53.274;9.500;2023-11-21T11:58:12;8.00;99.90
15239;DHT22;7722;53.274;9.500;2023-11-21T12:00:39;8.00;99.90
15239;DHT22;7722;53.274;9.500;2023-11-21T12:03:08;7.90;99.90
15239;DHT22;7722;53.274;9.500;2023-11-21T12:05:36;8.10;99.90
15239;DHT22;7722;53.274;9.500;2023-11-21T12:08:05;8.00;99.90
15239;DHT22;7722;53.274;9.500;2023-11-21T12:10:34;8.00;99.90
15239;DHT22;7722;53.274;9.500;2023-11-21T12:13:06;8.10;99.90
15239;DHT22;7722;53.274;9.500;2023-11-21T12:15:34;8.30;99.90
15239;DHT22;7722;53.274;9.500;2023-11-21T12:18:02;8.40;99.90
15239;DHT22;7722;53.274;9.500;2023-11-21T12:20:30;8.40;99.90
15239;DHT22;7722;53.274;9.500;2023-11-21T12:22:59;8.50;99.90
15239;DHT22;7722;53.274;9.500;2023-11-21T12:25:30;8.40;99.90
15239;DHT22;7722;53.274;9.500;2023-11-21T12:28:00;8.30;99.90
15239;DHT22;7722;53.274;9.500;2023-11-21T12:30:33;8.30;99.90
15239;DHT22;7722;53.274;9.500;2023-11-21T12:33:03;8.20;99.90
15239;DHT22;7722;53.274;9.500;2023-11-21T12:35:33;8.20;99.90
15239;DHT22;7722;53.274;9.500;2023-11-21T12:38:02;8.30;99.90
15239;DHT22;7722;53.274;9.500;2023-11-21T12:40:29;8.20;99.90
15239;DHT22;7722;53.274;9.500;2023-11-21T12:42:57;8.00;99.90
15239;DHT22;7722;53.274;9.500;2023-11-21T12:45:26;7.80;99.90
15239;DHT22;7722;53.274;9.500;2023-11-21T12:47:57;7.80;99.90
15239;DHT22;7722;53.274;9.500;2023-11-21T12:50:26;7.70;99.90
15239;DHT22;7722;53.274;9.500;2023-11-21T12:53:00;7.90;99.90
15239;DHT22;7722;53.274;9.500;2023-11-21T12:55:30;7.90;99.90
15239;DHT22;7722;53.274;9.500;2023-11-21T12:58:01;8.00;99.90
15239;DHT22;7722;53.274;9.500;2023-11-21T13:00:35;7.90;99.90
15239;DHT22;7722;53.274;9.500;2023-11-21T13:03:05;7.90;99.90
15239;DHT22;7722;53.274;9.500;2023-11-21T13:05:34;7.70;99.90
15239;DHT22;7722;53.274;9.500;2023-11-21T13:08:05;7.70;99.90
15239;DHT22;7722;53.274;9.500;2023-11-21T13:10:36;7.80;99.90
15239;DHT22;7722;53.274;9.500;2023-11-21T13:13:05;7.70;99.90
15239;DHT22;7722;53.274;9.500;2023-11-21T13:15:35;7.60;99.90
15239;DHT22;7722;53.274;9.500;2023-11-21T13:18:24;7.60;99.90
15239;DHT22;7722;53.274;9.500;2023-11-21T13:20:52;7.70;99.90
15239;DHT22;7722;53.274;9.500;2023-11-21T13:23:20;7.60;99.90
15239;DHT22;7722;53.274;9.500;2023-11-21T13:25:48;7.60;99.90
15239;DHT22;7722;53.274;9.500;2023-11-21T13:28:16;7.50;99.90
15239;DHT22;7722;53.274;9.500;2023-11-21T13:30:44;7.50;99.90
15239;DHT22;7722;53.274;9.500;2023-11-21T13:33:11;7.40;99.90
15239;DHT22;7722;53.274;9.500;2023-11-21T13:35:44;7.30;99.90
15239;DHT22;7722;53.274;9.500;2023-11-21T13:38:16;7.30;99.90
15239;DHT22;7722;53.274;9.500;2023-11-21T13:40:48;7.30;99.90
15239;DHT22;7722;53.274;9.500;2023-11-21T13:43:19;7.20;99.90
15239;DHT22;7722;53.274;9.500;2023-11-21T13:45:48;7.20;99.90
15239;DHT22;7722;53.274;9.500;2023-11-21T13:48:17;7.10;99.90
15239;DHT22;7722;53.274;9.500;2023-11-21T13:50:55;7.00;99.90
15239;DHT22;7722;53.274;9.500;2023-11-21T13:53:24;7.10;99.90
15239;DHT22;7722;53.274;9.500;2023-11-21T13:55:52;7.10;99.90
15239;DHT22;7722;53.274;9.500;2023-11-21T13:58:20;7.00;99.90
15239;DHT22;7722;53.274;9.500;2023-11-21T14:00:51;7.10;99.90
15239;DHT22;7722;53.274;9.500;2023-11-21T14:03:22;7.10;99.90
15239;DHT22;7722;53.274;9.500;2023-11-21T14:05:59;7.00;99.90
15239;DHT22;7722;53.274;9.500;2023-11-21T14:08:33;6.90;99.90
15239;DHT22;7722;53.274;9.500;2023-11-21T14:11:00;6.90;99.90
15239;DHT22;7722;53.274;9.500;2023-11-21T14:13:27;6.90;99.90
15239;DHT22;7722;53.274;9.500;2023-11-21T14:15:54;6.80;99.90
15239;DHT22;7722;53.274;9.500;2023-11-21T14:18:24;6.70;99.90
15239;DHT22;7722;53.274;9.500;2023-11-21T14:20:56;6.70;99.90
15239;DHT22;7722;53.274;9.500;2023-11-21T14:23:24;6.70;99.90
15239;DHT22;7722;53.274;9.500;2023-11-21T14:25:51;6.70;99.90
15239;DHT22;7722;53.274;9.500;2023-11-21T14:28:18;6.60;99.90
15239;DHT22;7722;53.274;9.500;2023-11-21T14:30:46;6.70;99.90
15239;DHT22;7722;53.274;9.500;2023-11-21T14:33:13;6.60;99.90
15239;DHT22;7722;53.274;9.500;2023-11-21T14:35:42;6.60;99.90
15239;DHT22;7722;53.274;9.500;2023-11-21T14:38:09;6.50;99.90
15239;DHT22;7722;53.274;9.500;2023-11-21T14:40:37;6.50;99.90
15239;DHT22;7722;53.274;9.500;2023-11-21T14:43:04;6.50;99.90
15239;DHT22;7722;53.274;9.500;2023-11-21T14:45:32;6.50;99.90
15239;DHT22;7722;53.274;9.500;2023-11-21T14:47:59;6.40;99.90
15239;DHT22;7722;53.274;9.500;2023-11-21T14:50:33;6.40;99.90
15239;DHT22;7722;53.274;9.500;2023-11-21T14:53:17;6.30;99.90
15239;DHT22;7722;53.274;9.500;2023-11-21T14:56:06;6.30;99.90
15239;DHT22;7722;53.274;9.500;2023-11-21T14:58:33;6.30;99.90
15239;DHT22;7722;53.274;9.500;2023-11-21T15:01:02;6.30;99.90
15239;DHT22;7722;53.274;9.500;2023-11-21T15:03:31;6.30;99.90
15239;DHT22;7722;53.274;9.500;2023-11-21T15:06:10;6.20;99.90
15239;DHT22;7722;53.274;9.500;2023-11-21T15:08:53;6.20;99.90
15239;DHT22;7722;53.274;9.500;2023-11-21T15:11:49;6.10;99.90
15239;DHT22;7722;53.274;9.500;2023-11-21T15:14:21;6.10;99.90
15239;DHT22;7722;53.274;9.500;2023-11-21T15:16:52;6.10;99.90
15239;DHT22;7722;53.274;9.500;2023-11-21T15:19:25;6.00;99.90
15239;DHT22;7722;53.274;9.500;2023-11-21T15:21:55;6.10;99.90
15239;DHT22;7722;53.274;9.500;2023-11-21T15:24:25;6.10;99.90
15239;DHT22;7722;53.274;9.500;2023-11-21T15:26:56;6.00;99.90
15239;DHT22;7722;53.274;9.500;2023-11-21T15:29:26;6.00;99.90
15239;DHT22;7722;53.274;9.500;2023-11-21T15:31:55;6.00;99.90
15239;DHT22;7722;53.274;9.500;2023-11-21T15:34:24;5.90;99.90
15239;DHT22;7722;53.274;9.500;2023-11-21T15:36:54;5.90;99.90
15239;DHT22;7722;53.274;9.500;2023-11-21T15:39:22;5.90;99.90
15239;DHT22;7722;53.274;9.500;2023-11-21T15:41:56;5.90;99.90
15239;DHT22;7722;53.274;9.500;2023-11-21T15:44:24;5.80;99.90
15239;DHT22;7722;53.274;9.500;2023-11-21T15:46:53;5.80;99.90
15239;DHT22;7722;53.274;9.500;2023-11-21T15:49:21;5.80;99.90
15239;DHT22;7722;53.274;9.500;2023-11-21T15:51:50;5.80;99.90
15239;DHT22;7722;53.274;9.500;2023-11-21T15:54:22;5.80;99.90
15239;DHT22;7722;53.274;9.500;2023-11-21T15:56:51;5.80;99.90
15239;DHT22;7722;53.274;9.500;2023-11-21T15:59:23;5.80;99.90
15239;DHT22;7722;53.274;9.500;2023-11-21T16:01:55;5.70;99.90
15239;DHT22;7722;53.274;9.500;2023-11-21T16:04:24;5.70;99.90
15239;DHT22;7722;53.274;9.500;2023-11-21T16:06:52;5.80;99.90
15239;DHT22;7722;53.274;9.500;2023-11-21T16:09:21;5.70;99.90
15239;DHT22;7722;53.274;9.500;2023-11-21T16:11:50;5.80;99.90